createdAt,value
2024-05-09T00:02:08.426Z,7.57
2024-05-09T00:04:40.100Z,7.50
2024-05-09T00:07:10.926Z,6.90
2024-05-09T00:09:41.075Z,6.10
2024-05-09T00:12:14.203Z,6.60
2024-05-09T00:14:44.452Z,6.40
2024-05-09T00:17:14.764Z,7.50
2024-05-09T00:19:47.259Z,5.47
2024-05-09T00:22:17.397Z,8.93
2024-05-09T00:24:50.514Z,7.33
2024-05-09T00:27:23.743Z,7.93
2024-05-09T00:29:54.088Z,6.23
2024-05-09T00:32:24.635Z,8.00
2024-05-09T00:34:54.725Z,8.10
2024-05-09T00:37:27.772Z,5.30
2024-05-09T00:39:57.696Z,6.93
2024-05-09T00:42:30.574Z,6.17
2024-05-09T00:45:00.862Z,6.27
2024-05-09T00:47:34.118Z,5.30
2024-05-09T00:50:09.774Z,6.03
2024-05-09T00:52:43.169Z,6.03
2024-05-09T00:55:13.133Z,6.57
2024-05-09T00:57:46.341Z,5.20
2024-05-09T01:00:26.111Z,5.90
2024-05-09T01:03:01.797Z,5.50
2024-05-09T01:05:32.370Z,5.57
2024-05-09T01:08:03.115Z,6.43
2024-05-09T01:10:35.412Z,7.10
2024-05-09T01:13:09.484Z,5.17
2024-05-09T01:15:39.543Z,6.00
2024-05-09T01:18:13.161Z,6.60
2024-05-09T01:20:45.435Z,6.60
2024-05-09T01:23:18.956Z,6.17
2024-05-09T01:25:49.271Z,6.10
2024-05-09T01:28:19.305Z,5.70
2024-05-09T01:30:49.269Z,5.80
2024-05-09T01:33:20.032Z,7.87
2024-05-09T01:35:50.283Z,6.43
2024-05-09T01:38:23.219Z,4.60
2024-05-09T01:40:53.388Z,6.33
2024-05-09T01:43:23.505Z,6.73
2024-05-09T01:45:53.599Z,5.37
2024-05-09T01:48:24.710Z,5.83
2024-05-09T01:50:55.104Z,8.13
2024-05-09T01:53:27.851Z,8.67
2024-05-09T01:55:57.905Z,7.07
2024-05-09T01:58:30.694Z,5.67
2024-05-09T02:01:00.761Z,6.83
2024-05-09T02:03:30.961Z,7.73
2024-05-09T02:06:01.508Z,6.93
2024-05-09T02:08:34.619Z,7.17
2024-05-09T02:11:04.936Z,6.70
2024-05-09T02:13:35.540Z,6.63
2024-05-09T02:16:06.291Z,9.70
2024-05-09T02:18:36.738Z,8.60
2024-05-09T02:21:06.980Z,5.60
2024-05-09T02:23:39.619Z,6.97
2024-05-09T02:26:10.292Z,7.20
2024-05-09T02:28:43.082Z,7.10
2024-05-09T02:31:14.732Z,10.23
2024-05-09T02:33:44.952Z,5.40
2024-05-09T02:36:15.502Z,6.60
2024-05-09T02:38:45.576Z,6.77
2024-05-09T02:41:15.867Z,6.93
2024-05-09T02:43:43.435Z,5.90
2024-05-09T02:46:16.849Z,7.07
2024-05-09T02:48:44.686Z,6.63
2024-05-09T02:51:15.044Z,5.70
2024-05-09T02:53:45.448Z,5.43
2024-05-09T02:56:15.617Z,6.03
2024-05-09T02:58:43.262Z,6.07
2024-05-09T03:01:13.926Z,6.40
2024-05-09T03:03:43.707Z,5.60
2024-05-09T03:06:16.473Z,7.10
2024-05-09T03:08:47.940Z,8.97
2024-05-09T03:11:24.454Z,6.83
2024-05-09T03:13:52.433Z,5.73
2024-05-09T03:16:22.704Z,6.53
2024-05-09T03:18:50.618Z,5.90
2024-05-09T03:21:20.670Z,6.50
2024-05-09T03:23:50.909Z,5.73
2024-05-09T03:26:21.338Z,7.63
2024-05-09T03:28:50.045Z,6.00
2024-05-09T03:31:21.452Z,8.23
2024-05-09T03:33:49.450Z,7.83
2024-05-09T03:36:19.643Z,6.40
2024-05-09T03:38:51.015Z,6.47
2024-05-09T03:41:24.826Z,5.13
2024-05-09T03:43:54.892Z,8.60
2024-05-09T03:46:22.314Z,6.63
2024-05-09T03:48:53.450Z,7.87
2024-05-09T03:51:21.000Z,5.70
2024-05-09T03:53:51.698Z,5.10
2024-05-09T03:56:22.254Z,6.80
2024-05-09T03:58:52.390Z,5.90
2024-05-09T04:01:19.934Z,5.53
2024-05-09T04:03:49.935Z,4.50
2024-05-09T04:06:23.436Z,7.67
2024-05-09T04:08:53.554Z,5.90
2024-05-09T04:11:23.931Z,6.17
2024-05-09T04:13:54.191Z,5.63
2024-05-09T04:16:21.700Z,8.33
2024-05-09T04:18:52.545Z,7.00
2024-05-09T04:21:20.297Z,5.40
2024-05-09T04:23:51.316Z,6.93
2024-05-09T04:26:18.903Z,7.13
2024-05-09T04:28:51.619Z,6.17
2024-05-09T04:31:18.999Z,5.40
2024-05-09T04:33:49.419Z,7.57
2024-05-09T04:36:18.716Z,6.80
2024-05-09T04:38:48.782Z,6.97
2024-05-09T04:41:17.352Z,5.10
2024-05-09T04:43:47.453Z,4.40
2024-05-09T04:46:18.125Z,6.23
2024-05-09T04:48:49.047Z,5.60
2024-05-09T04:51:16.631Z,7.30
2024-05-09T04:53:46.757Z,6.20
2024-05-09T04:56:14.229Z,4.60
2024-05-09T04:58:44.316Z,4.30
2024-05-09T05:01:11.886Z,7.07
2024-05-09T05:03:45.063Z,5.40
2024-05-09T05:06:12.793Z,7.60
2024-05-09T05:08:42.840Z,5.97
2024-05-09T05:11:11.948Z,9.33
2024-05-09T05:13:42.331Z,4.80
2024-05-09T05:16:10.632Z,5.53
2024-05-09T05:18:40.952Z,4.80
2024-05-09T05:21:11.555Z,9.93
2024-05-09T05:23:43.649Z,5.10
2024-05-09T05:26:11.168Z,5.90
2024-05-09T05:28:41.409Z,6.03
2024-05-09T05:31:09.026Z,6.63
2024-05-09T05:33:39.278Z,12.47
2024-05-09T05:36:07.375Z,4.83
2024-05-09T05:38:44.352Z,5.00
2024-05-09T05:41:12.373Z,6.23
2024-05-09T05:43:44.105Z,4.60
2024-05-09T05:46:13.154Z,7.10
2024-05-09T05:48:43.434Z,4.30
2024-05-09T05:51:11.986Z,4.83
2024-05-09T05:53:44.895Z,5.53
2024-05-09T05:56:12.531Z,4.83
2024-05-09T05:58:43.320Z,5.70
2024-05-09T06:01:10.925Z,5.33
2024-05-09T06:03:41.087Z,5.10
2024-05-09T06:06:08.850Z,4.80
2024-05-09T06:08:39.417Z,5.47
2024-05-09T06:11:09.641Z,5.47
2024-05-09T06:13:45.467Z,5.90
2024-05-09T06:16:12.962Z,4.43
2024-05-09T06:18:43.218Z,5.97
2024-05-09T06:21:10.759Z,5.30
2024-05-09T06:23:48.443Z,3.20
2024-05-09T06:26:18.977Z,5.40
2024-05-09T06:28:49.273Z,6.70
2024-05-09T06:31:17.213Z,6.80
2024-05-09T06:33:48.870Z,6.00
2024-05-09T06:36:16.580Z,4.77
2024-05-09T06:38:47.683Z,5.77
2024-05-09T06:41:18.176Z,5.17
2024-05-09T06:43:48.353Z,5.63
2024-05-09T06:46:15.932Z,5.23
2024-05-09T06:48:48.371Z,5.03
2024-05-09T06:51:16.162Z,6.40
2024-05-09T06:53:46.536Z,5.27
2024-05-09T06:56:14.647Z,4.53
2024-05-09T06:58:47.685Z,4.97
2024-05-09T07:01:15.649Z,4.20
2024-05-09T07:03:46.003Z,7.33
2024-05-09T07:06:13.542Z,5.60
2024-05-09T07:08:44.010Z,6.67
2024-05-09T07:11:12.111Z,5.10
2024-05-09T07:13:42.352Z,4.63
2024-05-09T07:16:12.717Z,3.97
2024-05-09T07:18:42.978Z,4.77
2024-05-09T07:21:11.104Z,4.87
2024-05-09T07:23:43.590Z,5.60
2024-05-09T07:26:13.826Z,5.30
2024-05-09T07:28:43.993Z,5.50
2024-05-09T07:31:17.383Z,5.40
2024-05-09T07:33:47.729Z,5.20
2024-05-09T07:36:15.439Z,6.00
2024-05-09T07:38:45.887Z,4.47
2024-05-09T07:41:14.835Z,4.73
2024-05-09T07:43:46.705Z,4.33
2024-05-09T07:47:14.353Z,5.17
2024-05-09T07:54:13.565Z,4.27
2024-05-09T07:56:41.623Z,5.37
2024-05-09T07:59:11.764Z,3.87
2024-05-09T08:01:42.102Z,5.57
2024-05-09T08:04:15.206Z,5.53
2024-05-09T08:06:42.885Z,5.83
2024-05-09T08:09:16.932Z,5.43
2024-05-09T08:11:48.212Z,4.80
2024-05-09T08:14:23.483Z,5.03
2024-05-09T08:16:54.675Z,3.90
2024-05-09T08:19:26.286Z,4.30
2024-05-09T08:21:54.118Z,4.10
2024-05-09T08:24:24.156Z,4.60
2024-05-09T08:26:51.715Z,5.63
2024-05-09T08:29:21.937Z,4.63
2024-05-09T08:31:49.834Z,5.07
2024-05-09T08:34:22.476Z,4.80
2024-05-09T08:36:50.287Z,5.23
2024-05-09T08:39:21.398Z,4.33
2024-05-09T08:41:50.109Z,4.30
2024-05-09T08:44:35.281Z,3.97
2024-05-09T08:47:08.654Z,8.30
2024-05-09T08:49:41.377Z,4.43
2024-05-09T08:52:13.441Z,3.90
2024-05-09T08:54:41.139Z,5.03
2024-05-09T08:57:13.390Z,4.20
2024-05-09T08:59:50.996Z,4.73
2024-05-09T09:02:21.928Z,4.43
2024-05-09T09:04:56.913Z,4.83
2024-05-09T09:07:28.027Z,4.70
2024-05-09T09:09:56.149Z,4.43
2024-05-09T09:12:27.404Z,4.60
2024-05-09T09:14:54.879Z,4.83
2024-05-09T09:17:27.890Z,3.73
2024-05-09T09:19:59.819Z,4.40
2024-05-09T09:22:30.019Z,4.43
2024-05-09T09:24:57.465Z,4.47
2024-05-09T09:27:27.833Z,3.97
2024-05-09T09:29:57.259Z,4.50
2024-05-09T09:32:31.594Z,5.50
2024-05-09T09:35:01.856Z,5.50
2024-05-09T09:37:33.179Z,4.50
2024-05-09T09:40:03.156Z,4.30
2024-05-09T09:42:34.524Z,4.50
2024-05-09T09:45:05.380Z,3.70
2024-05-09T09:47:39.928Z,4.97
2024-05-09T09:50:14.644Z,4.23
2024-05-09T09:52:47.953Z,5.27
2024-05-09T09:55:15.638Z,4.23
2024-05-09T09:57:47.060Z,5.80
2024-05-09T10:00:24.033Z,3.10
2024-05-09T10:02:57.941Z,3.63
2024-05-09T10:05:28.674Z,4.13
2024-05-09T10:07:59.526Z,3.77
2024-05-09T10:10:32.436Z,4.80
2024-05-09T10:13:03.586Z,3.90
2024-05-09T10:15:31.851Z,5.37
2024-05-09T10:18:08.646Z,4.20
2024-05-09T10:20:43.894Z,3.60
2024-05-09T10:23:27.509Z,4.90
2024-05-09T10:25:58.744Z,3.73
2024-05-09T10:28:29.820Z,3.87
2024-05-09T10:31:02.467Z,5.00
2024-05-09T10:33:40.518Z,4.10
2024-05-09T10:36:14.587Z,4.40
2024-05-09T10:38:45.752Z,4.93
2024-05-09T10:41:13.633Z,3.73
2024-05-09T10:43:44.815Z,4.43
2024-05-09T10:46:12.547Z,3.77
2024-05-09T10:48:45.851Z,4.00
2024-05-09T10:51:17.421Z,8.37
2024-05-09T10:53:48.496Z,5.00
2024-05-09T10:56:18.130Z,4.60
2024-05-09T10:58:48.348Z,4.53
2024-05-09T11:01:16.846Z,4.03
2024-05-09T11:03:50.421Z,4.17
2024-05-09T11:06:21.025Z,4.10
2024-05-09T11:08:51.156Z,4.50
2024-05-09T11:11:19.114Z,5.03
2024-05-09T11:13:49.444Z,4.03
2024-05-09T11:16:20.311Z,3.60
2024-05-09T11:18:58.598Z,6.17
2024-05-09T11:21:29.283Z,4.77
2024-05-09T11:24:00.319Z,4.30
2024-05-09T11:26:29.676Z,6.10
2024-05-09T11:28:59.840Z,3.97
2024-05-09T11:31:27.650Z,3.80
2024-05-09T11:33:57.763Z,3.63
2024-05-09T11:36:25.299Z,4.30
2024-05-09T11:38:57.873Z,3.57
2024-05-09T11:41:27.290Z,3.63
2024-05-09T11:43:58.032Z,3.50
2024-05-09T11:46:28.186Z,4.13
2024-05-09T11:48:58.488Z,4.80
2024-05-09T11:51:29.331Z,3.90
2024-05-09T11:54:01.926Z,4.83
2024-05-09T11:56:29.392Z,4.70
2024-05-09T11:58:59.924Z,4.13
2024-05-09T12:01:28.361Z,5.90
2024-05-09T12:03:58.904Z,4.07
2024-05-09T12:06:27.217Z,3.93
2024-05-09T12:08:57.339Z,3.90
2024-05-09T12:11:27.633Z,4.23
2024-05-09T12:13:58.197Z,3.17
2024-05-09T12:16:26.240Z,5.40
2024-05-09T12:18:57.189Z,4.80
2024-05-09T12:21:28.137Z,4.30
2024-05-09T12:23:58.501Z,3.90
2024-05-09T12:26:28.695Z,4.83
2024-05-09T12:28:58.924Z,3.70
2024-05-09T12:31:26.772Z,5.13
2024-05-09T12:33:57.388Z,4.23
2024-05-09T12:36:24.766Z,3.77
2024-05-09T12:38:54.821Z,4.07
2024-05-09T12:41:22.217Z,4.43
2024-05-09T12:43:54.871Z,9.50
2024-05-09T12:46:23.467Z,4.33
2024-05-09T12:48:54.060Z,4.27
2024-05-09T12:51:21.641Z,4.00
2024-05-09T12:53:51.615Z,3.63
2024-05-09T12:56:19.410Z,4.10
2024-05-09T12:58:49.548Z,4.33
2024-05-09T13:01:21.987Z,5.43
2024-05-09T13:03:52.255Z,3.73
2024-05-09T13:06:19.904Z,4.07
2024-05-09T13:08:49.900Z,3.53
2024-05-09T13:11:17.438Z,3.50
2024-05-09T13:13:49.385Z,3.83
2024-05-09T13:16:19.805Z,4.17
2024-05-09T13:18:50.651Z,3.80
2024-05-09T13:21:18.105Z,4.20
2024-05-09T13:23:47.935Z,3.77
2024-05-09T13:26:15.282Z,3.97
2024-05-09T13:28:45.329Z,3.77
2024-05-09T13:31:12.699Z,3.27
2024-05-09T13:33:45.877Z,3.57
2024-05-09T13:36:14.331Z,3.80
2024-05-09T13:38:44.484Z,6.63
2024-05-09T13:41:11.901Z,4.77
2024-05-09T13:43:42.035Z,3.97
2024-05-09T13:46:09.828Z,4.67
2024-05-09T13:48:40.934Z,6.37
2024-05-09T13:51:12.161Z,4.20
2024-05-09T13:53:42.812Z,4.67
2024-05-09T13:56:10.187Z,4.03
2024-05-09T13:58:40.297Z,3.57
2024-05-09T14:01:08.757Z,4.30
2024-05-09T14:03:40.150Z,5.50
2024-05-09T14:06:13.101Z,3.40
2024-05-09T14:08:45.234Z,3.57
2024-05-09T14:11:12.634Z,4.23
2024-05-09T14:13:42.846Z,3.80
2024-05-09T14:16:10.601Z,3.63
2024-05-09T14:18:41.552Z,4.60
2024-05-09T14:21:14.871Z,3.60
2024-05-09T14:23:42.583Z,4.43
2024-05-09T14:26:14.178Z,4.73
2024-05-09T14:28:44.633Z,4.03
2024-05-09T14:31:14.693Z,3.93
2024-05-09T14:33:42.966Z,3.17
2024-05-09T14:36:16.119Z,4.63
2024-05-09T14:38:44.138Z,3.93
2024-05-09T14:41:14.212Z,3.93
2024-05-09T14:43:45.882Z,4.83
2024-05-09T14:46:16.510Z,3.73
2024-05-09T14:48:44.725Z,4.37
2024-05-09T14:51:17.739Z,4.83
2024-05-09T14:53:45.065Z,4.50
2024-05-09T14:56:15.563Z,3.10
2024-05-09T14:58:43.009Z,3.50
2024-05-09T15:01:13.213Z,3.97
2024-05-09T15:03:43.864Z,4.10
2024-05-09T15:06:14.221Z,3.80
2024-05-09T15:08:44.355Z,3.93
2024-05-09T15:11:14.413Z,3.43
2024-05-09T15:13:42.113Z,5.13
2024-05-09T15:16:12.421Z,3.63
2024-05-09T15:18:43.145Z,4.17
2024-05-09T15:21:14.044Z,3.87
2024-05-09T15:23:44.170Z,4.60
2024-05-09T15:26:14.786Z,3.57
2024-05-09T15:28:42.685Z,4.40
2024-05-09T15:31:15.671Z,3.50
2024-05-09T15:33:47.076Z,4.50
2024-05-09T15:36:17.115Z,4.00
2024-05-09T15:38:47.768Z,3.60
2024-05-09T15:41:17.769Z,4.00
2024-05-09T15:43:45.616Z,5.40
2024-05-09T15:46:16.890Z,3.23
2024-05-09T15:48:45.006Z,3.73
2024-05-09T15:51:15.072Z,3.77
2024-05-09T15:53:42.631Z,6.50
2024-05-09T15:56:15.380Z,3.50
2024-05-09T15:58:43.080Z,3.50
2024-05-09T16:01:15.107Z,4.67
2024-05-09T16:03:42.905Z,3.30
2024-05-09T16:06:13.250Z,10.93
2024-05-09T16:08:43.006Z,3.53
2024-05-09T16:11:17.326Z,4.47
2024-05-09T16:13:44.754Z,4.30
2024-05-09T16:16:15.436Z,3.97
2024-05-09T16:18:42.912Z,3.63
2024-05-09T16:21:13.023Z,4.53
2024-05-09T16:23:40.767Z,4.40
2024-05-09T16:26:10.859Z,5.73
2024-05-09T16:28:40.965Z,3.80
2024-05-09T16:31:11.472Z,4.40
2024-05-09T16:33:40.564Z,5.27
2024-05-09T16:36:11.021Z,4.17
2024-05-09T16:38:40.165Z,3.80
2024-05-09T16:41:10.310Z,4.80
2024-05-09T16:43:40.414Z,4.50
2024-05-09T16:46:10.785Z,4.73
2024-05-09T16:48:41.111Z,4.00
2024-05-09T16:51:12.483Z,4.10
2024-05-09T16:53:41.166Z,3.13
2024-05-09T16:56:11.723Z,3.67
2024-05-09T16:58:42.396Z,5.50
2024-05-09T17:01:15.090Z,4.07
2024-05-09T17:03:42.957Z,4.40
2024-05-09T17:06:16.278Z,21.07
2024-05-09T17:08:44.118Z,35.40
2024-05-09T17:11:18.134Z,57.63
2024-05-09T17:13:51.756Z,30.27
2024-05-09T17:16:22.183Z,9.60
2024-05-09T17:18:51.040Z,32.23
2024-05-09T17:21:21.804Z,16.97
2024-05-09T17:23:53.615Z,55.37
2024-05-09T17:26:24.399Z,23.77
2024-05-09T17:28:55.390Z,11.20
2024-05-09T17:31:25.654Z,8.93
2024-05-09T17:33:53.485Z,4.70
2024-05-09T17:36:26.316Z,6.53
2024-05-09T17:38:54.053Z,10.73
2024-05-09T17:41:24.356Z,6.50
2024-05-09T17:43:54.679Z,4.33
2024-05-09T17:46:25.593Z,4.37
2024-05-09T17:48:53.087Z,4.63
2024-05-09T17:51:23.207Z,5.00
2024-05-09T17:53:50.762Z,4.67
2024-05-09T17:56:21.315Z,4.30
2024-05-09T17:58:49.108Z,4.40
2024-05-09T18:01:26.284Z,4.17
2024-05-09T18:03:53.971Z,4.60
2024-05-09T18:06:24.371Z,3.80
2024-05-09T18:08:55.359Z,3.90
2024-05-09T18:11:25.692Z,4.10
2024-05-09T18:13:54.380Z,3.90
2024-05-09T18:16:27.572Z,4.63
2024-05-09T18:18:55.527Z,3.60
2024-05-09T18:21:26.037Z,6.00
2024-05-09T18:23:55.463Z,4.03
2024-05-09T18:26:28.296Z,5.10
2024-05-09T18:28:55.919Z,4.53
2024-05-09T18:31:28.768Z,4.33
2024-05-09T18:33:56.875Z,4.17
2024-05-09T18:36:27.105Z,4.20
2024-05-09T18:38:54.675Z,7.23
2024-05-09T18:41:24.909Z,3.97
2024-05-09T18:43:53.590Z,3.87
2024-05-09T18:46:24.213Z,4.43
2024-05-09T18:48:55.092Z,19.37
2024-05-09T18:51:25.929Z,4.80
2024-05-09T18:53:55.301Z,4.43
2024-05-09T18:56:26.750Z,6.27
2024-05-09T18:58:55.261Z,6.00
2024-05-09T19:01:26.131Z,4.90
2024-05-09T19:03:56.580Z,4.83
2024-05-09T19:06:26.689Z,3.73
2024-05-09T19:08:54.061Z,3.83
2024-05-09T19:11:24.537Z,4.37
2024-05-09T19:13:52.192Z,4.90
2024-05-09T19:16:22.570Z,4.00
2024-05-09T19:18:51.491Z,7.30
2024-05-09T19:21:24.479Z,4.87
2024-05-09T19:23:52.536Z,3.67
2024-05-09T19:26:22.917Z,4.13
2024-05-09T19:28:50.497Z,4.33
2024-05-09T19:31:21.251Z,4.90
2024-05-09T19:33:51.877Z,4.23
2024-05-09T19:36:22.355Z,4.80
2024-05-09T19:38:52.932Z,5.40
2024-05-09T19:41:20.476Z,3.67
2024-05-09T19:43:50.957Z,4.57
2024-05-09T19:46:18.468Z,3.97
2024-05-09T19:48:48.722Z,3.73
2024-05-09T19:51:16.794Z,4.87
2024-05-09T19:53:51.022Z,4.30
2024-05-09T19:56:18.624Z,4.40
2024-05-09T19:58:48.776Z,5.87
2024-05-09T20:01:18.337Z,5.10
2024-05-09T20:03:48.559Z,6.60
2024-05-09T20:06:16.494Z,5.07
2024-05-09T20:08:49.162Z,4.30
2024-05-09T20:11:16.602Z,5.07
2024-05-09T20:13:46.747Z,4.27
2024-05-09T20:16:14.226Z,4.43
2024-05-09T20:18:44.389Z,4.30
2024-05-09T20:21:12.134Z,6.10
2024-05-09T20:23:42.761Z,4.73
2024-05-09T20:26:13.231Z,4.27
2024-05-09T20:28:45.021Z,4.17
2024-05-09T20:31:20.696Z,5.53
2024-05-09T20:33:53.960Z,6.20
2024-05-09T20:36:21.428Z,7.20
2024-05-09T20:38:51.350Z,4.40
2024-05-09T20:41:21.284Z,4.20
2024-05-09T20:43:51.377Z,4.17
2024-05-09T20:46:19.205Z,4.57
2024-05-09T20:48:49.625Z,6.13
2024-05-09T20:51:17.307Z,4.70
2024-05-09T20:53:47.498Z,4.40
2024-05-09T20:56:15.060Z,4.67
2024-05-09T20:58:47.800Z,4.87
2024-05-09T21:01:15.530Z,4.83
2024-05-09T21:03:46.296Z,4.80
2024-05-09T21:06:13.941Z,4.40
2024-05-09T21:08:44.473Z,5.67
2024-05-09T21:11:12.064Z,4.90
2024-05-09T21:13:42.604Z,5.93
2024-05-09T21:16:13.044Z,4.73
2024-05-09T21:18:43.353Z,4.40
2024-05-09T21:21:14.248Z,5.20
2024-05-09T21:23:44.476Z,4.73
2024-05-09T21:26:12.031Z,5.53
2024-05-09T21:28:42.651Z,5.23
2024-05-09T21:31:12.799Z,4.80
2024-05-09T21:33:43.288Z,5.00
2024-05-09T21:36:11.033Z,4.43
2024-05-09T21:38:44.738Z,4.70
2024-05-09T21:41:12.201Z,4.83
2024-05-09T21:43:43.082Z,7.07
2024-05-09T21:46:13.265Z,8.03
2024-05-09T21:48:46.007Z,4.00
2024-05-09T21:51:14.140Z,4.87
2024-05-09T21:53:45.390Z,5.10
2024-05-09T21:56:13.192Z,3.90
2024-05-09T21:58:43.250Z,5.30
2024-05-09T22:01:13.905Z,5.47
2024-05-09T22:03:44.314Z,5.70
2024-05-09T22:06:11.702Z,4.90
2024-05-09T22:08:41.735Z,5.87
2024-05-09T22:11:09.168Z,5.93
2024-05-09T22:13:39.593Z,5.70
2024-05-09T22:16:08.447Z,5.70
2024-05-09T22:18:41.318Z,4.80
2024-05-09T22:21:10.117Z,5.77
2024-05-09T22:23:40.128Z,6.17
2024-05-09T22:26:07.928Z,4.60
2024-05-09T22:28:38.339Z,5.73
2024-05-09T22:31:07.296Z,6.00
2024-05-09T22:33:38.289Z,4.53
2024-05-09T22:36:10.062Z,5.57
2024-05-09T22:38:40.394Z,4.70
2024-05-09T22:41:08.219Z,6.00
2024-05-09T22:43:38.306Z,5.03
2024-05-09T22:46:05.777Z,5.60
2024-05-09T22:48:36.209Z,6.17
2024-05-09T22:51:04.596Z,6.03
2024-05-09T22:53:37.269Z,5.03
2024-05-09T22:56:05.174Z,5.93
2024-05-09T22:58:35.455Z,4.80
2024-05-09T23:01:03.326Z,7.23
2024-05-09T23:03:34.399Z,5.20
2024-05-09T23:06:06.627Z,5.20
2024-05-09T23:08:39.631Z,5.63
2024-05-09T23:11:07.154Z,4.87
2024-05-09T23:13:38.350Z,4.80
2024-05-09T23:16:06.344Z,5.80
2024-05-09T23:18:36.579Z,5.77
2024-05-09T23:21:04.374Z,5.87
2024-05-09T23:23:34.444Z,6.37
2024-05-09T23:26:05.406Z,7.23
2024-05-09T23:28:35.714Z,5.23
2024-05-09T23:31:03.832Z,5.70
2024-05-09T23:33:34.358Z,5.10
2024-05-09T23:36:01.779Z,5.57
2024-05-09T23:38:31.744Z,5.00
2024-05-09T23:40:59.075Z,4.90
2024-05-09T23:43:33.487Z,5.27
2024-05-09T23:46:01.411Z,6.50
2024-05-09T23:48:32.496Z,4.97
2024-05-09T23:50:59.914Z,6.17
2024-05-09T23:53:30.148Z,5.80
2024-05-09T23:55:57.644Z,6.20
2024-05-09T23:58:29.289Z,5.70
